sensor_id;sensor_type;location;lat;lon;timestamp;P1;durP1;ratioP1;P2;durP2;ratioP2
2802;SDS011;1409;51.154;6.938;2024-02-26T00:00:03;2.57;;;0.70;;
2802;SDS011;1409;51.154;6.938;2024-02-26T00:02:37;2.73;;;0.77;;
2802;SDS011;1409;51.154;6.938;2024-02-26T00:05:07;1.30;;;0.97;;
2802;SDS011;1409;51.154;6.938;2024-02-26T00:07:35;0.77;;;0.50;;
2802;SDS011;1409;51.154;6.938;2024-02-26T00:10:05;0.70;;;0.70;;
2802;SDS011;1409;51.154;6.938;2024-02-26T00:12:34;1.13;;;0.70;;
2802;SDS011;1409;51.154;6.938;2024-02-26T00:15:03;1.13;;;0.70;;
2802;SDS011;1409;51.154;6.938;2024-02-26T00:17:31;1.77;;;0.60;;
2802;SDS011;1409;51.154;6.938;2024-02-26T00:20:02;1.10;;;0.80;;
2802;SDS011;1409;51.154;6.938;2024-02-26T00:22:35;0.57;;;0.33;;
2802;SDS011;1409;51.154;6.938;2024-02-26T00:25:04;1.00;;;0.60;;
2802;SDS011;1409;51.154;6.938;2024-02-26T00:27:33;0.60;;;0.60;;
2802;SDS011;1409;51.154;6.938;2024-02-26T00:30:01;0.80;;;0.60;;
2802;SDS011;1409;51.154;6.938;2024-02-26T00:32:30;2.07;;;1.40;;
2802;SDS011;1409;51.154;6.938;2024-02-26T00:34:58;1.93;;;0.60;;
2802;SDS011;1409;51.154;6.938;2024-02-26T00:37:28;0.60;;;0.60;;
2802;SDS011;1409;51.154;6.938;2024-02-26T00:39:56;0.70;;;0.53;;
2802;SDS011;1409;51.154;6.938;2024-02-26T00:42:25;0.97;;;0.77;;
2802;SDS011;1409;51.154;6.938;2024-02-26T00:44:53;2.13;;;0.63;;
2802;SDS011;1409;51.154;6.938;2024-02-26T00:47:22;1.47;;;0.70;;
2802;SDS011;1409;51.154;6.938;2024-02-26T00:49:50;0.83;;;0.80;;
2802;SDS011;1409;51.154;6.938;2024-02-26T00:52:19;0.73;;;0.50;;
2802;SDS011;1409;51.154;6.938;2024-02-26T00:54:49;1.67;;;1.00;;
2802;SDS011;1409;51.154;6.938;2024-02-26T00:57:17;0.97;;;0.70;;
2802;SDS011;1409;51.154;6.938;2024-02-26T00:59:46;0.87;;;0.80;;
2802;SDS011;1409;51.154;6.938;2024-02-26T01:02:14;1.40;;;0.70;;
2802;SDS011;1409;51.154;6.938;2024-02-26T01:04:43;1.60;;;0.60;;
2802;SDS011;1409;51.154;6.938;2024-02-26T01:07:11;0.93;;;0.67;;
2802;SDS011;1409;51.154;6.938;2024-02-26T01:09:40;1.00;;;0.77;;
2802;SDS011;1409;51.154;6.938;2024-02-26T01:12:10;2.70;;;0.77;;
2802;SDS011;1409;51.154;6.938;2024-02-26T01:14:38;1.00;;;0.80;;
2802;SDS011;1409;51.154;6.938;2024-02-26T01:17:07;0.83;;;0.60;;
2802;SDS011;1409;51.154;6.938;2024-02-26T01:19:35;0.57;;;0.50;;
2802;SDS011;1409;51.154;6.938;2024-02-26T01:22:04;0.40;;;0.40;;
2802;SDS011;1409;51.154;6.938;2024-02-26T01:24:32;0.40;;;0.40;;
2802;SDS011;1409;51.154;6.938;2024-02-26T01:27:01;0.50;;;0.50;;
2802;SDS011;1409;51.154;6.938;2024-02-26T01:29:30;1.03;;;0.50;;
2802;SDS011;1409;51.154;6.938;2024-02-26T01:31:59;0.40;;;0.40;;
2802;SDS011;1409;51.154;6.938;2024-02-26T01:34:27;1.03;;;0.50;;
2802;SDS011;1409;51.154;6.938;2024-02-26T01:36:56;0.73;;;0.50;;
2802;SDS011;1409;51.154;6.938;2024-02-26T01:39:24;0.60;;;0.40;;
2802;SDS011;1409;51.154;6.938;2024-02-26T01:41:55;1.20;;;0.70;;
2802;SDS011;1409;51.154;6.938;2024-02-26T01:44:23;0.90;;;0.90;;
2802;SDS011;1409;51.154;6.938;2024-02-26T01:46:54;0.30;;;0.30;;
2802;SDS011;1409;51.154;6.938;2024-02-26T01:49:22;0.57;;;0.50;;
2802;SDS011;1409;51.154;6.938;2024-02-26T01:51:51;0.63;;;0.50;;
2802;SDS011;1409;51.154;6.938;2024-02-26T01:54:20;0.50;;;0.43;;
2802;SDS011;1409;51.154;6.938;2024-02-26T01:56:48;0.77;;;0.57;;
2802;SDS011;1409;51.154;6.938;2024-02-26T01:59:18;0.50;;;0.40;;
2802;SDS011;1409;51.154;6.938;2024-02-26T02:01:47;0.43;;;0.43;;
2802;SDS011;1409;51.154;6.938;2024-02-26T02:04:18;0.83;;;0.50;;
2802;SDS011;1409;51.154;6.938;2024-02-26T02:06:46;0.50;;;0.43;;
2802;SDS011;1409;51.154;6.938;2024-02-26T02:09:15;1.00;;;0.60;;
2802;SDS011;1409;51.154;6.938;2024-02-26T02:11:44;0.80;;;0.63;;
2802;SDS011;1409;51.154;6.938;2024-02-26T02:14:12;0.50;;;0.50;;
2802;SDS011;1409;51.154;6.938;2024-02-26T02:16:41;0.57;;;0.40;;
2802;SDS011;1409;51.154;6.938;2024-02-26T02:19:09;1.07;;;0.50;;
2802;SDS011;1409;51.154;6.938;2024-02-26T02:21:39;0.40;;;0.40;;
2802;SDS011;1409;51.154;6.938;2024-02-26T02:24:07;2.93;;;0.83;;
2802;SDS011;1409;51.154;6.938;2024-02-26T02:26:36;0.40;;;0.40;;
2802;SDS011;1409;51.154;6.938;2024-02-26T02:29:05;0.43;;;0.43;;
2802;SDS011;1409;51.154;6.938;2024-02-26T02:31:35;0.47;;;0.40;;
2802;SDS011;1409;51.154;6.938;2024-02-26T02:34:04;0.50;;;0.50;;
2802;SDS011;1409;51.154;6.938;2024-02-26T02:36:32;1.30;;;0.67;;
2802;SDS011;1409;51.154;6.938;2024-02-26T02:39:02;2.03;;;0.40;;
2802;SDS011;1409;51.154;6.938;2024-02-26T02:41:31;0.90;;;0.70;;
2802;SDS011;1409;51.154;6.938;2024-02-26T02:43:59;0.50;;;0.50;;
2802;SDS011;1409;51.154;6.938;2024-02-26T02:46:28;0.80;;;0.60;;
2802;SDS011;1409;51.154;6.938;2024-02-26T02:48:59;0.50;;;0.40;;
2802;SDS011;1409;51.154;6.938;2024-02-26T02:51:28;0.40;;;0.40;;
2802;SDS011;1409;51.154;6.938;2024-02-26T02:53:57;0.43;;;0.43;;
2802;SDS011;1409;51.154;6.938;2024-02-26T02:56:26;0.90;;;0.60;;
2802;SDS011;1409;51.154;6.938;2024-02-26T02:58:55;0.40;;;0.40;;
2802;SDS011;1409;51.154;6.938;2024-02-26T03:01:23;0.40;;;0.40;;
2802;SDS011;1409;51.154;6.938;2024-02-26T03:03:52;0.77;;;0.50;;
2802;SDS011;1409;51.154;6.938;2024-02-26T03:06:20;1.67;;;0.90;;
2802;SDS011;1409;51.154;6.938;2024-02-26T03:08:49;0.70;;;0.53;;
2802;SDS011;1409;51.154;6.938;2024-02-26T03:11:18;1.10;;;0.70;;
2802;SDS011;1409;51.154;6.938;2024-02-26T03:13:48;1.47;;;0.70;;
2802;SDS011;1409;51.154;6.938;2024-02-26T03:16:16;0.50;;;0.50;;
2802;SDS011;1409;51.154;6.938;2024-02-26T03:18:45;0.90;;;0.87;;
2802;SDS011;1409;51.154;6.938;2024-02-26T03:21:14;0.57;;;0.50;;
2802;SDS011;1409;51.154;6.938;2024-02-26T03:23:42;0.43;;;0.33;;
2802;SDS011;1409;51.154;6.938;2024-02-26T03:26:11;0.73;;;0.60;;
2802;SDS011;1409;51.154;6.938;2024-02-26T03:28:41;1.43;;;0.80;;
2802;SDS011;1409;51.154;6.938;2024-02-26T03:31:11;0.57;;;0.50;;
2802;SDS011;1409;51.154;6.938;2024-02-26T03:33:39;0.67;;;0.60;;
2802;SDS011;1409;51.154;6.938;2024-02-26T03:36:08;0.67;;;0.50;;
2802;SDS011;1409;51.154;6.938;2024-02-26T03:38:37;3.10;;;0.50;;
2802;SDS011;1409;51.154;6.938;2024-02-26T03:41:06;0.50;;;0.50;;
2802;SDS011;1409;51.154;6.938;2024-02-26T03:43:35;0.40;;;0.40;;
2802;SDS011;1409;51.154;6.938;2024-02-26T03:46:06;0.50;;;0.50;;
2802;SDS011;1409;51.154;6.938;2024-02-26T03:48:37;0.63;;;0.50;;
2802;SDS011;1409;51.154;6.938;2024-02-26T03:51:06;0.90;;;0.60;;
2802;SDS011;1409;51.154;6.938;2024-02-26T03:53:34;0.50;;;0.50;;
2802;SDS011;1409;51.154;6.938;2024-02-26T03:56:03;1.03;;;0.70;;
2802;SDS011;1409;51.154;6.938;2024-02-26T03:58:32;1.40;;;0.70;;
2802;SDS011;1409;51.154;6.938;2024-02-26T04:01:00;0.93;;;0.67;;
2802;SDS011;1409;51.154;6.938;2024-02-26T04:03:29;0.47;;;0.47;;
2802;SDS011;1409;51.154;6.938;2024-02-26T04:05:59;2.27;;;0.60;;
2802;SDS011;1409;51.154;6.938;2024-02-26T04:08:28;0.63;;;0.50;;
2802;SDS011;1409;51.154;6.938;2024-02-26T04:10:56;1.10;;;0.80;;
2802;SDS011;1409;51.154;6.938;2024-02-26T04:13:25;0.53;;;0.53;;
2802;SDS011;1409;51.154;6.938;2024-02-26T04:15:53;0.73;;;0.70;;
2802;SDS011;1409;51.154;6.938;2024-02-26T04:18:22;0.97;;;0.87;;
2802;SDS011;1409;51.154;6.938;2024-02-26T04:20:50;1.20;;;0.70;;
2802;SDS011;1409;51.154;6.938;2024-02-26T04:23:20;1.30;;;0.80;;
2802;SDS011;1409;51.154;6.938;2024-02-26T04:25:49;0.50;;;0.50;;
2802;SDS011;1409;51.154;6.938;2024-02-26T04:28:19;0.50;;;0.50;;
2802;SDS011;1409;51.154;6.938;2024-02-26T04:30:48;0.93;;;0.60;;
2802;SDS011;1409;51.154;6.938;2024-02-26T04:33:16;0.97;;;0.60;;
2802;SDS011;1409;51.154;6.938;2024-02-26T04:35:45;0.37;;;0.30;;
2802;SDS011;1409;51.154;6.938;2024-02-26T04:38:13;0.70;;;0.50;;
2802;SDS011;1409;51.154;6.938;2024-02-26T04:40:43;1.73;;;0.90;;
2802;SDS011;1409;51.154;6.938;2024-02-26T04:43:13;2.03;;;0.73;;
2802;SDS011;1409;51.154;6.938;2024-02-26T04:45:42;1.90;;;1.27;;
2802;SDS011;1409;51.154;6.938;2024-02-26T04:48:10;0.63;;;0.50;;
2802;SDS011;1409;51.154;6.938;2024-02-26T04:50:39;0.60;;;0.60;;
2802;SDS011;1409;51.154;6.938;2024-02-26T04:53:07;1.37;;;0.90;;
2802;SDS011;1409;51.154;6.938;2024-02-26T04:55:36;1.50;;;0.70;;
2802;SDS011;1409;51.154;6.938;2024-02-26T04:58:06;1.00;;;0.80;;
2802;SDS011;1409;51.154;6.938;2024-02-26T05:00:34;1.67;;;1.13;;
2802;SDS011;1409;51.154;6.938;2024-02-26T05:03:03;1.27;;;0.90;;
2802;SDS011;1409;51.154;6.938;2024-02-26T05:05:31;0.80;;;0.70;;
2802;SDS011;1409;51.154;6.938;2024-02-26T05:08:00;1.10;;;0.90;;
2802;SDS011;1409;51.154;6.938;2024-02-26T05:10:29;1.23;;;0.73;;
2802;SDS011;1409;51.154;6.938;2024-02-26T05:12:57;2.00;;;0.67;;
2802;SDS011;1409;51.154;6.938;2024-02-26T05:15:27;1.97;;;0.93;;
2802;SDS011;1409;51.154;6.938;2024-02-26T05:17:56;1.40;;;0.73;;
2802;SDS011;1409;51.154;6.938;2024-02-26T05:20:25;2.10;;;1.07;;
2802;SDS011;1409;51.154;6.938;2024-02-26T05:22:53;0.93;;;0.83;;
2802;SDS011;1409;51.154;6.938;2024-02-26T05:25:22;0.77;;;0.67;;
2802;SDS011;1409;51.154;6.938;2024-02-26T05:27:51;0.93;;;0.70;;
2802;SDS011;1409;51.154;6.938;2024-02-26T05:30:19;2.03;;;1.10;;
2802;SDS011;1409;51.154;6.938;2024-02-26T05:32:49;0.90;;;0.67;;
2802;SDS011;1409;51.154;6.938;2024-02-26T05:35:18;1.67;;;1.13;;
2802;SDS011;1409;51.154;6.938;2024-02-26T05:37:46;1.07;;;0.90;;
2802;SDS011;1409;51.154;6.938;2024-02-26T05:40:15;1.43;;;0.90;;
2802;SDS011;1409;51.154;6.938;2024-02-26T05:42:43;0.97;;;0.77;;
2802;SDS011;1409;51.154;6.938;2024-02-26T05:45:12;1.63;;;1.00;;
2802;SDS011;1409;51.154;6.938;2024-02-26T05:47:40;2.27;;;1.10;;
2802;SDS011;1409;51.154;6.938;2024-02-26T05:50:11;1.80;;;1.00;;
2802;SDS011;1409;51.154;6.938;2024-02-26T05:52:42;1.17;;;1.07;;
2802;SDS011;1409;51.154;6.938;2024-02-26T05:55:11;1.03;;;0.93;;
2802;SDS011;1409;51.154;6.938;2024-02-26T05:57:40;1.33;;;1.20;;
2802;SDS011;1409;51.154;6.938;2024-02-26T06:00:09;3.03;;;1.03;;
2802;SDS011;1409;51.154;6.938;2024-02-26T06:02:41;1.27;;;1.00;;
2802;SDS011;1409;51.154;6.938;2024-02-26T06:05:11;1.70;;;1.47;;
2802;SDS011;1409;51.154;6.938;2024-02-26T06:07:41;2.40;;;1.57;;
2802;SDS011;1409;51.154;6.938;2024-02-26T06:10:10;1.33;;;1.17;;
2802;SDS011;1409;51.154;6.938;2024-02-26T06:12:40;1.60;;;1.27;;
2802;SDS011;1409;51.154;6.938;2024-02-26T06:15:09;2.27;;;1.67;;
2802;SDS011;1409;51.154;6.938;2024-02-26T06:17:38;2.37;;;1.83;;
2802;SDS011;1409;51.154;6.938;2024-02-26T06:20:08;2.17;;;1.83;;
2802;SDS011;1409;51.154;6.938;2024-02-26T06:22:40;1.67;;;1.40;;
2802;SDS011;1409;51.154;6.938;2024-02-26T06:25:09;2.23;;;1.60;;
2802;SDS011;1409;51.154;6.938;2024-02-26T06:27:38;2.60;;;1.53;;
2802;SDS011;1409;51.154;6.938;2024-02-26T06:30:06;2.40;;;1.40;;
2802;SDS011;1409;51.154;6.938;2024-02-26T06:32:37;2.50;;;1.70;;
2802;SDS011;1409;51.154;6.938;2024-02-26T06:35:06;2.10;;;1.10;;
2802;SDS011;1409;51.154;6.938;2024-02-26T06:37:37;1.80;;;1.53;;
2802;SDS011;1409;51.154;6.938;2024-02-26T06:40:08;2.40;;;1.50;;
2802;SDS011;1409;51.154;6.938;2024-02-26T06:42:37;1.33;;;1.20;;
2802;SDS011;1409;51.154;6.938;2024-02-26T06:45:05;1.30;;;1.20;;
2802;SDS011;1409;51.154;6.938;2024-02-26T06:47:34;2.07;;;1.67;;
2802;SDS011;1409;51.154;6.938;2024-02-26T06:50:03;1.70;;;1.40;;
2802;SDS011;1409;51.154;6.938;2024-02-26T06:52:32;2.50;;;1.47;;
2802;SDS011;1409;51.154;6.938;2024-02-26T06:55:00;3.37;;;1.53;;
2802;SDS011;1409;51.154;6.938;2024-02-26T06:57:30;2.63;;;1.50;;
2802;SDS011;1409;51.154;6.938;2024-02-26T06:59:59;1.70;;;1.50;;
2802;SDS011;1409;51.154;6.938;2024-02-26T07:02:30;1.30;;;1.20;;
2802;SDS011;1409;51.154;6.938;2024-02-26T07:05:00;1.23;;;1.13;;
2802;SDS011;1409;51.154;6.938;2024-02-26T07:07:29;1.47;;;1.37;;
2802;SDS011;1409;51.154;6.938;2024-02-26T07:09:58;2.30;;;1.77;;
2802;SDS011;1409;51.154;6.938;2024-02-26T07:12:31;1.47;;;1.30;;
2802;SDS011;1409;51.154;6.938;2024-02-26T07:14:59;2.20;;;1.80;;
2802;SDS011;1409;51.154;6.938;2024-02-26T07:17:29;1.43;;;1.33;;
2802;SDS011;1409;51.154;6.938;2024-02-26T07:19:57;2.57;;;1.70;;
2802;SDS011;1409;51.154;6.938;2024-02-26T07:22:26;2.30;;;1.60;;
2802;SDS011;1409;51.154;6.938;2024-02-26T07:24:54;2.00;;;1.67;;
2802;SDS011;1409;51.154;6.938;2024-02-26T07:27:23;1.60;;;1.50;;
2802;SDS011;1409;51.154;6.938;2024-02-26T07:29:53;2.20;;;1.43;;
2802;SDS011;1409;51.154;6.938;2024-02-26T07:32:21;2.30;;;1.40;;
2802;SDS011;1409;51.154;6.938;2024-02-26T07:34:50;2.57;;;2.20;;
2802;SDS011;1409;51.154;6.938;2024-02-26T07:37:19;1.40;;;1.30;;
2802;SDS011;1409;51.154;6.938;2024-02-26T07:39:47;1.90;;;1.30;;
2802;SDS011;1409;51.154;6.938;2024-02-26T07:42:15;1.23;;;1.13;;
2802;SDS011;1409;51.154;6.938;2024-02-26T07:44:44;3.23;;;2.50;;
2802;SDS011;1409;51.154;6.938;2024-02-26T07:47:14;1.73;;;1.60;;
2802;SDS011;1409;51.154;6.938;2024-02-26T07:49:42;2.00;;;1.57;;
2802;SDS011;1409;51.154;6.938;2024-02-26T07:52:11;1.77;;;1.63;;
2802;SDS011;1409;51.154;6.938;2024-02-26T07:54:39;2.10;;;1.50;;
2802;SDS011;1409;51.154;6.938;2024-02-26T07:57:08;1.23;;;1.07;;
2802;SDS011;1409;51.154;6.938;2024-02-26T07:59:36;1.60;;;1.47;;
2802;SDS011;1409;51.154;6.938;2024-02-26T08:02:05;2.27;;;1.50;;
2802;SDS011;1409;51.154;6.938;2024-02-26T08:04:35;4.23;;;2.00;;
2802;SDS011;1409;51.154;6.938;2024-02-26T08:07:04;3.07;;;1.60;;
2802;SDS011;1409;51.154;6.938;2024-02-26T08:09:32;2.77;;;1.97;;
2802;SDS011;1409;51.154;6.938;2024-02-26T08:12:01;2.70;;;2.23;;
2802;SDS011;1409;51.154;6.938;2024-02-26T08:14:30;1.40;;;1.30;;
2802;SDS011;1409;51.154;6.938;2024-02-26T08:16:59;2.27;;;1.77;;
2802;SDS011;1409;51.154;6.938;2024-02-26T08:19:28;2.33;;;1.37;;
2802;SDS011;1409;51.154;6.938;2024-02-26T08:21:57;2.63;;;1.80;;
2802;SDS011;1409;51.154;6.938;2024-02-26T08:24:29;2.90;;;2.30;;
2802;SDS011;1409;51.154;6.938;2024-02-26T08:26:58;2.23;;;1.93;;
2802;SDS011;1409;51.154;6.938;2024-02-26T08:29:27;7.50;;;3.03;;
2802;SDS011;1409;51.154;6.938;2024-02-26T08:31:55;3.67;;;1.97;;
2802;SDS011;1409;51.154;6.938;2024-02-26T08:34:24;2.97;;;2.37;;
2802;SDS011;1409;51.154;6.938;2024-02-26T08:36:52;6.03;;;2.93;;
2802;SDS011;1409;51.154;6.938;2024-02-26T08:39:22;4.17;;;3.00;;
2802;SDS011;1409;51.154;6.938;2024-02-26T08:41:52;4.23;;;1.90;;
2802;SDS011;1409;51.154;6.938;2024-02-26T08:44:20;2.17;;;1.80;;
2802;SDS011;1409;51.154;6.938;2024-02-26T08:46:49;2.30;;;1.70;;
2802;SDS011;1409;51.154;6.938;2024-02-26T08:49:18;2.07;;;1.60;;
2802;SDS011;1409;51.154;6.938;2024-02-26T08:51:46;3.13;;;2.20;;
2802;SDS011;1409;51.154;6.938;2024-02-26T08:54:15;4.20;;;2.10;;
2802;SDS011;1409;51.154;6.938;2024-02-26T08:56:44;7.60;;;2.67;;
2802;SDS011;1409;51.154;6.938;2024-02-26T08:59:13;2.07;;;1.40;;
2802;SDS011;1409;51.154;6.938;2024-02-26T09:01:42;1.67;;;1.47;;
2802;SDS011;1409;51.154;6.938;2024-02-26T09:04:11;2.53;;;1.60;;
2802;SDS011;1409;51.154;6.938;2024-02-26T09:06:40;1.57;;;1.30;;
2802;SDS011;1409;51.154;6.938;2024-02-26T09:09:08;4.33;;;1.40;;
2802;SDS011;1409;51.154;6.938;2024-02-26T09:11:37;1.53;;;1.27;;
2802;SDS011;1409;51.154;6.938;2024-02-26T09:14:07;2.17;;;1.37;;
2802;SDS011;1409;51.154;6.938;2024-02-26T09:16:35;2.50;;;1.40;;
2802;SDS011;1409;51.154;6.938;2024-02-26T09:19:04;1.77;;;1.30;;
2802;SDS011;1409;51.154;6.938;2024-02-26T09:21:33;1.40;;;1.10;;
2802;SDS011;1409;51.154;6.938;2024-02-26T09:24:01;1.40;;;1.30;;
2802;SDS011;1409;51.154;6.938;2024-02-26T09:26:30;2.20;;;1.13;;
2802;SDS011;1409;51.154;6.938;2024-02-26T09:28:58;2.10;;;1.17;;
2802;SDS011;1409;51.154;6.938;2024-02-26T09:31:28;1.90;;;1.40;;
2802;SDS011;1409;51.154;6.938;2024-02-26T09:33:57;1.37;;;1.27;;
2802;SDS011;1409;51.154;6.938;2024-02-26T09:36:29;1.10;;;0.87;;
2802;SDS011;1409;51.154;6.938;2024-02-26T09:38:57;1.40;;;1.30;;
2802;SDS011;1409;51.154;6.938;2024-02-26T09:41:28;2.03;;;1.50;;
2802;SDS011;1409;51.154;6.938;2024-02-26T09:43:57;1.40;;;1.20;;
2802;SDS011;1409;51.154;6.938;2024-02-26T09:46:26;1.93;;;1.50;;
2802;SDS011;1409;51.154;6.938;2024-02-26T09:48:56;2.17;;;1.53;;
2802;SDS011;1409;51.154;6.938;2024-02-26T09:51:25;1.37;;;1.13;;
2802;SDS011;1409;51.154;6.938;2024-02-26T09:53:55;4.57;;;1.33;;
2802;SDS011;1409;51.154;6.938;2024-02-26T09:56:24;2.07;;;1.10;;
2802;SDS011;1409;51.154;6.938;2024-02-26T09:58:53;3.50;;;1.40;;
2802;SDS011;1409;51.154;6.938;2024-02-26T10:01:22;1.57;;;1.43;;
2802;SDS011;1409;51.154;6.938;2024-02-26T10:03:52;1.30;;;1.20;;
2802;SDS011;1409;51.154;6.938;2024-02-26T10:06:25;2.40;;;1.30;;
2802;SDS011;1409;51.154;6.938;2024-02-26T10:08:55;3.23;;;1.63;;
2802;SDS011;1409;51.154;6.938;2024-02-26T10:11:25;3.13;;;1.40;;
2802;SDS011;1409;51.154;6.938;2024-02-26T10:13:55;3.07;;;1.50;;
2802;SDS011;1409;51.154;6.938;2024-02-26T10:16:23;2.80;;;2.00;;
2802;SDS011;1409;51.154;6.938;2024-02-26T10:18:52;1.50;;;1.40;;
2802;SDS011;1409;51.154;6.938;2024-02-26T10:21:27;2.97;;;1.40;;
2802;SDS011;1409;51.154;6.938;2024-02-26T10:23:56;1.80;;;1.53;;
2802;SDS011;1409;51.154;6.938;2024-02-26T10:26:24;1.90;;;1.40;;
2802;SDS011;1409;51.154;6.938;2024-02-26T10:28:53;1.60;;;1.50;;
2802;SDS011;1409;51.154;6.938;2024-02-26T10:31:28;4.70;;;1.70;;
2802;SDS011;1409;51.154;6.938;2024-02-26T10:33:57;1.27;;;1.17;;
2802;SDS011;1409;51.154;6.938;2024-02-26T10:36:33;1.60;;;1.43;;
2802;SDS011;1409;51.154;6.938;2024-02-26T10:39:14;2.37;;;1.77;;
2802;SDS011;1409;51.154;6.938;2024-02-26T10:41:44;2.13;;;1.40;;
2802;SDS011;1409;51.154;6.938;2024-02-26T10:44:12;2.70;;;1.60;;
2802;SDS011;1409;51.154;6.938;2024-02-26T10:46:46;1.60;;;1.50;;
2802;SDS011;1409;51.154;6.938;2024-02-26T10:49:15;2.27;;;1.33;;
2802;SDS011;1409;51.154;6.938;2024-02-26T10:51:50;4.10;;;1.70;;
2802;SDS011;1409;51.154;6.938;2024-02-26T10:54:20;1.87;;;1.63;;
2802;SDS011;1409;51.154;6.938;2024-02-26T10:56:51;2.53;;;2.00;;
2802;SDS011;1409;51.154;6.938;2024-02-26T10:59:19;5.10;;;1.93;;
2802;SDS011;1409;51.154;6.938;2024-02-26T11:01:48;2.17;;;1.63;;
2802;SDS011;1409;51.154;6.938;2024-02-26T11:04:16;3.30;;;2.13;;
2802;SDS011;1409;51.154;6.938;2024-02-26T11:06:45;2.07;;;1.80;;
2802;SDS011;1409;51.154;6.938;2024-02-26T11:09:16;2.23;;;1.70;;
2802;SDS011;1409;51.154;6.938;2024-02-26T11:11:45;2.50;;;1.80;;
2802;SDS011;1409;51.154;6.938;2024-02-26T11:14:14;1.90;;;1.60;;
2802;SDS011;1409;51.154;6.938;2024-02-26T11:16:43;3.60;;;1.90;;
2802;SDS011;1409;51.154;6.938;2024-02-26T11:19:12;1.90;;;1.50;;
2802;SDS011;1409;51.154;6.938;2024-02-26T11:21:41;3.33;;;1.27;;
2802;SDS011;1409;51.154;6.938;2024-02-26T11:24:10;1.93;;;1.60;;
2802;SDS011;1409;51.154;6.938;2024-02-26T11:26:42;2.40;;;1.60;;
2802;SDS011;1409;51.154;6.938;2024-02-26T11:29:14;1.77;;;1.60;;
2802;SDS011;1409;51.154;6.938;2024-02-26T11:31:44;1.87;;;1.53;;
2802;SDS011;1409;51.154;6.938;2024-02-26T11:34:13;2.70;;;1.50;;
2802;SDS011;1409;51.154;6.938;2024-02-26T11:36:41;3.77;;;1.90;;
2802;SDS011;1409;51.154;6.938;2024-02-26T11:39:10;2.10;;;1.50;;
2802;SDS011;1409;51.154;6.938;2024-02-26T11:41:43;2.73;;;1.97;;
2802;SDS011;1409;51.154;6.938;2024-02-26T11:44:11;2.30;;;1.93;;
2802;SDS011;1409;51.154;6.938;2024-02-26T11:46:40;5.83;;;2.30;;
2802;SDS011;1409;51.154;6.938;2024-02-26T11:51:58;3.50;;;2.90;;
2802;SDS011;1409;51.154;6.938;2024-02-26T11:54:46;3.60;;;2.97;;
2802;SDS011;1409;51.154;6.938;2024-02-26T11:57:22;3.80;;;2.60;;
2802;SDS011;1409;51.154;6.938;2024-02-26T11:59:51;2.70;;;2.50;;
2802;SDS011;1409;51.154;6.938;2024-02-26T12:05:24;3.90;;;2.90;;
2802;SDS011;1409;51.154;6.938;2024-02-26T12:07:59;2.87;;;2.57;;
2802;SDS011;1409;51.154;6.938;2024-02-26T12:10:35;3.90;;;3.00;;
2802;SDS011;1409;51.154;6.938;2024-02-26T12:13:07;2.70;;;2.47;;
2802;SDS011;1409;51.154;6.938;2024-02-26T12:15:37;4.27;;;2.83;;
2802;SDS011;1409;51.154;6.938;2024-02-26T12:18:07;3.27;;;2.77;;
2802;SDS011;1409;51.154;6.938;2024-02-26T12:20:37;6.13;;;2.80;;
2802;SDS011;1409;51.154;6.938;2024-02-26T12:23:05;3.80;;;2.80;;
2802;SDS011;1409;51.154;6.938;2024-02-26T12:25:34;6.43;;;3.10;;
2802;SDS011;1409;51.154;6.938;2024-02-26T12:28:02;6.00;;;3.73;;
2802;SDS011;1409;51.154;6.938;2024-02-26T12:30:32;3.73;;;3.37;;
2802;SDS011;1409;51.154;6.938;2024-02-26T12:33:01;3.93;;;3.37;;
2802;SDS011;1409;51.154;6.938;2024-02-26T12:35:30;4.43;;;3.37;;
2802;SDS011;1409;51.154;6.938;2024-02-26T12:37:59;5.40;;;3.20;;
2802;SDS011;1409;51.154;6.938;2024-02-26T12:40:29;5.23;;;3.73;;
2802;SDS011;1409;51.154;6.938;2024-02-26T12:42:58;6.03;;;3.43;;
2802;SDS011;1409;51.154;6.938;2024-02-26T12:45:26;5.17;;;3.67;;
2802;SDS011;1409;51.154;6.938;2024-02-26T12:47:56;6.30;;;3.97;;
2802;SDS011;1409;51.154;6.938;2024-02-26T12:50:25;6.60;;;3.70;;
2802;SDS011;1409;51.154;6.938;2024-02-26T12:52:54;4.87;;;3.47;;
2802;SDS011;1409;51.154;6.938;2024-02-26T12:55:22;5.60;;;3.93;;
2802;SDS011;1409;51.154;6.938;2024-02-26T12:57:51;4.83;;;4.20;;
2802;SDS011;1409;51.154;6.938;2024-02-26T13:00:20;5.53;;;3.90;;
2802;SDS011;1409;51.154;6.938;2024-02-26T13:02:49;5.97;;;4.43;;
2802;SDS011;1409;51.154;6.938;2024-02-26T13:05:20;6.00;;;4.40;;
2802;SDS011;1409;51.154;6.938;2024-02-26T13:07:49;4.97;;;4.40;;
2802;SDS011;1409;51.154;6.938;2024-02-26T13:10:19;4.53;;;3.87;;
2802;SDS011;1409;51.154;6.938;2024-02-26T13:12:48;7.77;;;5.70;;
2802;SDS011;1409;51.154;6.938;2024-02-26T13:15:19;7.97;;;5.87;;
2802;SDS011;1409;51.154;6.938;2024-02-26T13:17:48;7.97;;;5.37;;
2802;SDS011;1409;51.154;6.938;2024-02-26T13:20:26;8.33;;;5.27;;
2802;SDS011;1409;51.154;6.938;2024-02-26T13:23:02;6.93;;;5.07;;
2802;SDS011;1409;51.154;6.938;2024-02-26T13:25:31;7.70;;;5.30;;
2802;SDS011;1409;51.154;6.938;2024-02-26T13:28:06;9.87;;;5.73;;
2802;SDS011;1409;51.154;6.938;2024-02-26T13:30:35;9.97;;;6.23;;
2802;SDS011;1409;51.154;6.938;2024-02-26T13:33:07;8.70;;;6.40;;
2802;SDS011;1409;51.154;6.938;2024-02-26T13:35:38;8.50;;;5.97;;
2802;SDS011;1409;51.154;6.938;2024-02-26T13:38:07;7.20;;;5.97;;
2802;SDS011;1409;51.154;6.938;2024-02-26T13:40:34;7.73;;;5.27;;
2802;SDS011;1409;51.154;6.938;2024-02-26T13:43:03;7.83;;;5.37;;
2802;SDS011;1409;51.154;6.938;2024-02-26T13:45:33;7.17;;;5.50;;
2802;SDS011;1409;51.154;6.938;2024-02-26T13:48:05;6.90;;;5.53;;
2802;SDS011;1409;51.154;6.938;2024-02-26T13:50:34;6.67;;;5.03;;
2802;SDS011;1409;51.154;6.938;2024-02-26T13:53:04;9.43;;;5.80;;
2802;SDS011;1409;51.154;6.938;2024-02-26T13:55:32;8.03;;;5.57;;
2802;SDS011;1409;51.154;6.938;2024-02-26T13:58:01;8.43;;;5.80;;
2802;SDS011;1409;51.154;6.938;2024-02-26T14:00:30;9.07;;;5.43;;
2802;SDS011;1409;51.154;6.938;2024-02-26T14:03:00;6.67;;;5.50;;
2802;SDS011;1409;51.154;6.938;2024-02-26T14:05:30;8.33;;;5.47;;
2802;SDS011;1409;51.154;6.938;2024-02-26T14:07:58;8.30;;;5.80;;
2802;SDS011;1409;51.154;6.938;2024-02-26T14:10:28;7.27;;;5.50;;
2802;SDS011;1409;51.154;6.938;2024-02-26T14:12:58;7.40;;;5.37;;
2802;SDS011;1409;51.154;6.938;2024-02-26T14:15:27;6.80;;;5.10;;
2802;SDS011;1409;51.154;6.938;2024-02-26T14:17:56;6.17;;;4.80;;
2802;SDS011;1409;51.154;6.938;2024-02-26T14:20:25;8.53;;;5.80;;
2802;SDS011;1409;51.154;6.938;2024-02-26T14:22:53;6.73;;;5.03;;
2802;SDS011;1409;51.154;6.938;2024-02-26T14:25:22;9.00;;;5.33;;
2802;SDS011;1409;51.154;6.938;2024-02-26T14:27:56;7.93;;;5.30;;
2802;SDS011;1409;51.154;6.938;2024-02-26T14:30:25;9.57;;;6.00;;
2802;SDS011;1409;51.154;6.938;2024-02-26T14:32:54;6.63;;;5.33;;
2802;SDS011;1409;51.154;6.938;2024-02-26T14:35:23;6.83;;;5.70;;
2802;SDS011;1409;51.154;6.938;2024-02-26T14:37:51;11.67;;;6.07;;
2802;SDS011;1409;51.154;6.938;2024-02-26T14:40:21;7.30;;;5.20;;
2802;SDS011;1409;51.154;6.938;2024-02-26T14:42:49;9.47;;;6.30;;
2802;SDS011;1409;51.154;6.938;2024-02-26T14:45:19;9.10;;;6.13;;
2802;SDS011;1409;51.154;6.938;2024-02-26T14:47:48;9.43;;;6.20;;
2802;SDS011;1409;51.154;6.938;2024-02-26T14:50:17;6.73;;;5.17;;
2802;SDS011;1409;51.154;6.938;2024-02-26T14:52:47;7.83;;;5.97;;
2802;SDS011;1409;51.154;6.938;2024-02-26T14:55:15;8.67;;;6.50;;
2802;SDS011;1409;51.154;6.938;2024-02-26T14:57:44;6.63;;;5.97;;
2802;SDS011;1409;51.154;6.938;2024-02-26T15:00:12;7.20;;;6.23;;
2802;SDS011;1409;51.154;6.938;2024-02-26T15:02:42;8.37;;;6.10;;
2802;SDS011;1409;51.154;6.938;2024-02-26T15:05:11;7.37;;;6.07;;
2802;SDS011;1409;51.154;6.938;2024-02-26T15:07:39;8.43;;;6.63;;
2802;SDS011;1409;51.154;6.938;2024-02-26T15:10:08;6.17;;;5.57;;
2802;SDS011;1409;51.154;6.938;2024-02-26T15:12:38;7.73;;;6.20;;
2802;SDS011;1409;51.154;6.938;2024-02-26T15:15:07;10.63;;;6.17;;
2802;SDS011;1409;51.154;6.938;2024-02-26T15:17:36;7.20;;;6.03;;
2802;SDS011;1409;51.154;6.938;2024-02-26T15:20:07;7.00;;;5.17;;
2802;SDS011;1409;51.154;6.938;2024-02-26T15:22:38;6.80;;;5.60;;
2802;SDS011;1409;51.154;6.938;2024-02-26T15:25:06;6.97;;;4.80;;
2802;SDS011;1409;51.154;6.938;2024-02-26T15:27:39;7.67;;;5.30;;
2802;SDS011;1409;51.154;6.938;2024-02-26T15:30:08;8.37;;;5.20;;
2802;SDS011;1409;51.154;6.938;2024-02-26T15:32:36;6.93;;;5.70;;